sensor_id;sensor_type;location;lat;lon;timestamp;pressure;altitude;pressure_sealevel;temperature;humidity
76011;BME280;64701;43.536;1.478;2022-12-18T00:01:57;100135.31;;;6.31;91.46
76011;BME280;64701;43.536;1.478;2022-12-18T00:04:23;100131.47;;;6.07;90.93
76011;BME280;64701;43.536;1.478;2022-12-18T00:06:49;100132.25;;;6.08;91.23
76011;BME280;64701;43.536;1.478;2022-12-18T00:09:15;100136.13;;;6.13;92.07
76011;BME280;64701;43.536;1.478;2022-12-18T00:11:40;100131.41;;;6.17;91.31
76011;BME280;64701;43.536;1.478;2022-12-18T00:14:05;100118.16;;;6.09;90.97
76011;BME280;64701;43.536;1.478;2022-12-18T00:16:31;100124.31;;;6.00;90.16
76011;BME280;64701;43.536;1.478;2022-12-18T00:18:58;100124.38;;;5.81;91.44
76011;BME280;64701;43.536;1.478;2022-12-18T00:21:24;100118.75;;;5.75;91.74
76011;BME280;64701;43.536;1.478;2022-12-18T00:23:49;100117.91;;;5.75;91.59
76011;BME280;64701;43.536;1.478;2022-12-18T00:26:33;100121.44;;;5.66;91.67
76011;BME280;64701;43.536;1.478;2022-12-18T00:29:00;100121.44;;;5.66;91.61
76011;BME280;64701;43.536;1.478;2022-12-18T00:31:25;100123.34;;;5.64;91.96
76011;BME280;64701;43.536;1.478;2022-12-18T00:33:51;100116.84;;;5.68;91.94
76011;BME280;64701;43.536;1.478;2022-12-18T00:36:19;100123.59;;;5.70;91.95
76011;BME280;64701;43.536;1.478;2022-12-18T00:38:45;100125.94;;;5.73;91.34
76011;BME280;64701;43.536;1.478;2022-12-18T00:41:11;100125.09;;;5.73;91.66
76011;BME280;64701;43.536;1.478;2022-12-18T00:43:37;100125.28;;;5.71;91.25
76011;BME280;64701;43.536;1.478;2022-12-18T00:46:03;100128.31;;;5.67;90.37
76011;BME280;64701;43.536;1.478;2022-12-18T00:48:28;100125.72;;;5.57;90.27
76011;BME280;64701;43.536;1.478;2022-12-18T00:50:54;100119.53;;;5.49;90.74
76011;BME280;64701;43.536;1.478;2022-12-18T00:53:19;100129.66;;;5.44;91.57
76011;BME280;64701;43.536;1.478;2022-12-18T00:55:44;100116.78;;;5.50;91.69
76011;BME280;64701;43.536;1.478;2022-12-18T00:58:10;100121.75;;;5.53;92.04
76011;BME280;64701;43.536;1.478;2022-12-18T01:00:36;100126.69;;;5.56;91.58
76011;BME280;64701;43.536;1.478;2022-12-18T01:03:03;100135.28;;;5.49;91.31
76011;BME280;64701;43.536;1.478;2022-12-18T01:05:28;100136.97;;;5.50;90.75
76011;BME280;64701;43.536;1.478;2022-12-18T01:07:54;100141.13;;;5.43;90.55
76011;BME280;64701;43.536;1.478;2022-12-18T01:10:20;100143.09;;;5.41;90.79
76011;BME280;64701;43.536;1.478;2022-12-18T01:12:45;100151.78;;;5.41;91.04
76011;BME280;64701;43.536;1.478;2022-12-18T01:15:11;100163.25;;;5.40;91.59
76011;BME280;64701;43.536;1.478;2022-12-18T01:17:37;100166.03;;;5.39;91.35
76011;BME280;64701;43.536;1.478;2022-12-18T01:20:03;100169.34;;;5.41;91.37
76011;BME280;64701;43.536;1.478;2022-12-18T01:22:29;100161.72;;;5.38;91.24
76011;BME280;64701;43.536;1.478;2022-12-18T01:24:54;100164.09;;;5.31;91.30
76011;BME280;64701;43.536;1.478;2022-12-18T01:27:19;100179.31;;;5.27;91.66
76011;BME280;64701;43.536;1.478;2022-12-18T01:29:45;100174.59;;;5.31;91.53
76011;BME280;64701;43.536;1.478;2022-12-18T01:32:10;100180.69;;;5.31;91.62
76011;BME280;64701;43.536;1.478;2022-12-18T01:34:36;100179.59;;;5.24;91.79
76011;BME280;64701;43.536;1.478;2022-12-18T01:37:04;100181.81;;;5.19;91.83
76011;BME280;64701;43.536;1.478;2022-12-18T01:39:30;100184.72;;;5.16;92.27
76011;BME280;64701;43.536;1.478;2022-12-18T01:41:57;100194.09;;;5.19;92.48
76011;BME280;64701;43.536;1.478;2022-12-18T01:47:20;100203.50;;;5.21;91.79
76011;BME280;64701;43.536;1.478;2022-12-18T01:49:46;100194.09;;;5.19;91.77
76011;BME280;64701;43.536;1.478;2022-12-18T01:52:13;100195.50;;;5.13;92.03
76011;BME280;64701;43.536;1.478;2022-12-18T01:54:38;100193.44;;;5.07;91.73
76011;BME280;64701;43.536;1.478;2022-12-18T01:57:03;100200.22;;;5.00;91.31
76011;BME280;64701;43.536;1.478;2022-12-18T01:59:29;100196.75;;;4.90;91.47
76011;BME280;64701;43.536;1.478;2022-12-18T02:01:56;100197.47;;;4.82;91.54
76011;BME280;64701;43.536;1.478;2022-12-18T02:04:22;100193.44;;;4.78;91.58
76011;BME280;64701;43.536;1.478;2022-12-18T02:06:49;100208.66;;;4.75;91.61
76011;BME280;64701;43.536;1.478;2022-12-18T02:09:18;100205.22;;;4.65;91.61
76011;BME280;64701;43.536;1.478;2022-12-18T02:27:29;100227.94;;;4.55;90.44
76011;BME280;64701;43.536;1.478;2022-12-18T02:29:56;100228.22;;;4.51;90.18
76011;BME280;64701;43.536;1.478;2022-12-18T02:32:26;100230.16;;;4.49;90.04
76011;BME280;64701;43.536;1.478;2022-12-18T02:34:52;100231.09;;;4.48;90.17
76011;BME280;64701;43.536;1.478;2022-12-18T02:37:19;100231.25;;;4.47;91.04
76011;BME280;64701;43.536;1.478;2022-12-18T02:39:46;100233.06;;;4.46;90.37
76011;BME280;64701;43.536;1.478;2022-12-18T02:42:12;100229.72;;;4.44;90.40
76011;BME280;64701;43.536;1.478;2022-12-18T02:44:45;100230.97;;;4.40;90.04
76011;BME280;64701;43.536;1.478;2022-12-18T02:47:11;100232.03;;;4.28;90.06
76011;BME280;64701;43.536;1.478;2022-12-18T02:52:28;100244.69;;;4.23;89.58
76011;BME280;64701;43.536;1.478;2022-12-18T02:57:39;100243.44;;;4.18;90.12
76011;BME280;64701;43.536;1.478;2022-12-18T03:00:07;100241.22;;;4.13;90.52
76011;BME280;64701;43.536;1.478;2022-12-18T03:02:38;100227.28;;;4.13;90.04
76011;BME280;64701;43.536;1.478;2022-12-18T03:05:19;100235.16;;;4.13;90.18
76011;BME280;64701;43.536;1.478;2022-12-18T03:07:47;100227.56;;;4.09;89.75
76011;BME280;64701;43.536;1.478;2022-12-18T03:10:16;100226.88;;;4.07;90.19
76011;BME280;64701;43.536;1.478;2022-12-18T03:12:47;100225.34;;;4.05;89.84
76011;BME280;64701;43.536;1.478;2022-12-18T03:15:17;100223.00;;;4.02;90.39
76011;BME280;64701;43.536;1.478;2022-12-18T03:17:46;100220.66;;;3.99;89.94
76011;BME280;64701;43.536;1.478;2022-12-18T03:20:15;100217.56;;;3.94;90.13
76011;BME280;64701;43.536;1.478;2022-12-18T03:22:42;100210.13;;;3.89;90.09
76011;BME280;64701;43.536;1.478;2022-12-18T03:25:10;100213.84;;;3.87;90.50
76011;BME280;64701;43.536;1.478;2022-12-18T03:27:39;100209.81;;;3.83;90.31
76011;BME280;64701;43.536;1.478;2022-12-18T03:30:08;100210.34;;;3.77;90.65
76011;BME280;64701;43.536;1.478;2022-12-18T03:32:43;100210.03;;;3.70;92.15
76011;BME280;64701;43.536;1.478;2022-12-18T03:35:10;100205.63;;;3.70;92.16
76011;BME280;64701;43.536;1.478;2022-12-18T03:37:37;100206.13;;;3.64;92.83
76011;BME280;64701;43.536;1.478;2022-12-18T03:40:03;100204.63;;;3.62;92.64
76011;BME280;64701;43.536;1.478;2022-12-18T03:42:32;100189.03;;;3.60;93.19
76011;BME280;64701;43.536;1.478;2022-12-18T03:48:08;100187.91;;;3.53;93.14
76011;BME280;64701;43.536;1.478;2022-12-18T03:50:45;100185.41;;;3.52;92.89
76011;BME280;64701;43.536;1.478;2022-12-18T03:55:43;100192.97;;;3.45;93.46
76011;BME280;64701;43.536;1.478;2022-12-18T03:58:09;100183.91;;;3.49;92.84
76011;BME280;64701;43.536;1.478;2022-12-18T04:00:38;100183.78;;;3.51;93.40
76011;BME280;64701;43.536;1.478;2022-12-18T04:03:04;100180.88;;;3.54;92.87
76011;BME280;64701;43.536;1.478;2022-12-18T04:05:29;100185.16;;;3.55;93.14
76011;BME280;64701;43.536;1.478;2022-12-18T04:07:55;100180.75;;;3.55;92.37
76011;BME280;64701;43.536;1.478;2022-12-18T04:10:21;100184.88;;;3.58;92.17
76011;BME280;64701;43.536;1.478;2022-12-18T04:12:47;100174.56;;;3.56;92.07
76011;BME280;64701;43.536;1.478;2022-12-18T04:15:13;100162.31;;;3.57;91.93
76011;BME280;64701;43.536;1.478;2022-12-18T04:17:38;100164.91;;;3.57;91.30
76011;BME280;64701;43.536;1.478;2022-12-18T04:20:07;100166.94;;;3.53;92.12
76011;BME280;64701;43.536;1.478;2022-12-18T04:22:33;100162.66;;;3.52;92.08
76011;BME280;64701;43.536;1.478;2022-12-18T04:24:58;100164.47;;;3.52;92.88
76011;BME280;64701;43.536;1.478;2022-12-18T04:27:23;100166.28;;;3.51;92.43
76011;BME280;64701;43.536;1.478;2022-12-18T04:29:49;100169.84;;;3.50;93.05
76011;BME280;64701;43.536;1.478;2022-12-18T04:32:14;100160.06;;;3.52;92.42
76011;BME280;64701;43.536;1.478;2022-12-18T04:34:39;100161.84;;;3.52;93.23
76011;BME280;64701;43.536;1.478;2022-12-18T04:37:05;100159.22;;;3.52;92.92
76011;BME280;64701;43.536;1.478;2022-12-18T04:39:30;100159.81;;;3.55;93.32
76011;BME280;64701;43.536;1.478;2022-12-18T04:41:55;100165.03;;;3.55;92.88
76011;BME280;64701;43.536;1.478;2022-12-18T04:44:21;100166.72;;;3.56;93.20
76011;BME280;64701;43.536;1.478;2022-12-18T04:46:46;100170.28;;;3.55;93.39
76011;BME280;64701;43.536;1.478;2022-12-18T04:49:11;100167.22;;;3.50;93.69
76011;BME280;64701;43.536;1.478;2022-12-18T04:51:37;100181.72;;;3.54;94.09
76011;BME280;64701;43.536;1.478;2022-12-18T04:54:02;100179.22;;;3.53;94.55
76011;BME280;64701;43.536;1.478;2022-12-18T04:56:28;100179.81;;;3.56;94.22
76011;BME280;64701;43.536;1.478;2022-12-18T04:58:53;100179.09;;;3.54;94.43
76011;BME280;64701;43.536;1.478;2022-12-18T05:01:18;100178.44;;;3.62;94.38
76011;BME280;64701;43.536;1.478;2022-12-18T05:03:44;100184.81;;;3.69;93.98
76011;BME280;64701;43.536;1.478;2022-12-18T05:06:09;100196.94;;;3.70;94.05
76011;BME280;64701;43.536;1.478;2022-12-18T05:08:35;100207.03;;;3.75;94.36
76011;BME280;64701;43.536;1.478;2022-12-18T05:11:02;100205.53;;;3.82;93.79
76011;BME280;64701;43.536;1.478;2022-12-18T05:13:27;100209.97;;;3.81;93.40
76011;BME280;64701;43.536;1.478;2022-12-18T05:15:53;100209.56;;;3.86;93.72
76011;BME280;64701;43.536;1.478;2022-12-18T05:18:19;100210.25;;;3.88;93.15
76011;BME280;64701;43.536;1.478;2022-12-18T05:20:44;100218.97;;;3.98;92.96
76011;BME280;64701;43.536;1.478;2022-12-18T05:23:09;100223.94;;;4.01;92.70
76011;BME280;64701;43.536;1.478;2022-12-18T05:25:35;100225.34;;;4.05;93.07
76011;BME280;64701;43.536;1.478;2022-12-18T05:28:00;100227.00;;;4.06;92.96
76011;BME280;64701;43.536;1.478;2022-12-18T05:30:25;100231.44;;;4.15;92.97
76011;BME280;64701;43.536;1.478;2022-12-18T05:32:51;100231.16;;;4.18;92.58
76011;BME280;64701;43.536;1.478;2022-12-18T05:35:16;100236.41;;;4.18;92.77
76011;BME280;64701;43.536;1.478;2022-12-18T05:37:42;100231.59;;;4.23;92.58
76011;BME280;64701;43.536;1.478;2022-12-18T05:40:07;100235.63;;;4.27;91.94
76011;BME280;64701;43.536;1.478;2022-12-18T05:42:32;100236.75;;;4.34;91.83
76011;BME280;64701;43.536;1.478;2022-12-18T05:44:58;100232.06;;;4.38;92.28
76011;BME280;64701;43.536;1.478;2022-12-18T05:47:23;100237.31;;;4.38;91.74
76011;BME280;64701;43.536;1.478;2022-12-18T05:49:48;100234.97;;;4.44;91.64
76011;BME280;64701;43.536;1.478;2022-12-18T05:52:14;100242.00;;;4.44;91.45
76011;BME280;64701;43.536;1.478;2022-12-18T05:54:39;100243.69;;;4.55;91.71
76011;BME280;64701;43.536;1.478;2022-12-18T05:57:04;100246.06;;;4.58;91.25
76011;BME280;64701;43.536;1.478;2022-12-18T05:59:30;100244.38;;;4.57;91.33
76011;BME280;64701;43.536;1.478;2022-12-18T06:01:55;100237.34;;;4.67;91.08
76011;BME280;64701;43.536;1.478;2022-12-18T06:04:20;100242.88;;;4.73;91.11
76011;BME280;64701;43.536;1.478;2022-12-18T06:06:46;100240.25;;;4.73;90.25
76011;BME280;64701;43.536;1.478;2022-12-18T06:09:11;100229.06;;;4.71;90.45
76011;BME280;64701;43.536;1.478;2022-12-18T06:11:36;100242.75;;;4.75;90.94
76011;BME280;64701;43.536;1.478;2022-12-18T06:14:02;100236.38;;;4.77;90.74
76011;BME280;64701;43.536;1.478;2022-12-18T06:16:28;100233.75;;;4.77;89.75
76011;BME280;64701;43.536;1.478;2022-12-18T06:18:56;100227.97;;;4.74;89.94
76011;BME280;64701;43.536;1.478;2022-12-18T06:21:21;100243.16;;;4.80;90.22
76011;BME280;64701;43.536;1.478;2022-12-18T06:23:46;100248.66;;;4.77;89.74
76011;BME280;64701;43.536;1.478;2022-12-18T06:26:12;100252.00;;;4.79;89.64
76011;BME280;64701;43.536;1.478;2022-12-18T06:28:38;100250.75;;;4.83;89.56
76011;BME280;64701;43.536;1.478;2022-12-18T06:31:04;100253.38;;;4.83;89.34
76011;BME280;64701;43.536;1.478;2022-12-18T06:33:29;100256.44;;;4.88;89.30
76011;BME280;64701;43.536;1.478;2022-12-18T06:35:59;100249.25;;;4.80;89.53
76011;BME280;64701;43.536;1.478;2022-12-18T06:38:25;100242.88;;;4.83;90.01
76011;BME280;64701;43.536;1.478;2022-12-18T06:40:50;100248.00;;;4.84;89.31
76011;BME280;64701;43.536;1.478;2022-12-18T06:43:15;100241.66;;;4.87;89.68
76011;BME280;64701;43.536;1.478;2022-12-18T06:45:40;100248.69;;;4.86;89.55
76011;BME280;64701;43.536;1.478;2022-12-18T06:48:07;100248.28;;;4.91;89.67
76011;BME280;64701;43.536;1.478;2022-12-18T06:50:32;100248.16;;;4.92;90.18
76011;BME280;64701;43.536;1.478;2022-12-18T06:52:57;100254.91;;;4.95;89.40
76011;BME280;64701;43.536;1.478;2022-12-18T06:55:23;100252.28;;;4.95;89.81
76011;BME280;64701;43.536;1.478;2022-12-18T06:57:48;100260.59;;;5.00;89.22
76011;BME280;64701;43.536;1.478;2022-12-18T07:00:13;100259.19;;;4.96;89.57
76011;BME280;64701;43.536;1.478;2022-12-18T07:02:39;100248.16;;;4.92;89.34
76011;BME280;64701;43.536;1.478;2022-12-18T07:05:05;100246.22;;;4.85;90.14
76011;BME280;64701;43.536;1.478;2022-12-18T07:07:30;100237.09;;;4.89;89.39
76011;BME280;64701;43.536;1.478;2022-12-18T07:09:56;100247.03;;;4.95;89.52
76011;BME280;64701;43.536;1.478;2022-12-18T07:12:21;100250.09;;;5.00;89.22
76011;BME280;64701;43.536;1.478;2022-12-18T07:14:46;100252.28;;;4.95;89.66
76011;BME280;64701;43.536;1.478;2022-12-18T07:17:12;100252.56;;;4.92;89.73
76011;BME280;64701;43.536;1.478;2022-12-18T07:19:37;100243.44;;;4.96;90.18
76011;BME280;64701;43.536;1.478;2022-12-18T07:22:02;100248.16;;;4.92;90.42
76011;BME280;64701;43.536;1.478;2022-12-18T07:24:27;100237.09;;;4.89;90.11
76011;BME280;64701;43.536;1.478;2022-12-18T07:26:53;100238.91;;;4.98;90.14
76011;BME280;64701;43.536;1.478;2022-12-18T07:29:18;100230.72;;;5.01;89.97
76011;BME280;64701;43.536;1.478;2022-12-18T07:31:44;100230.31;;;4.96;90.65
76011;BME280;64701;43.536;1.478;2022-12-18T07:34:10;100230.47;;;5.04;90.36
76011;BME280;64701;43.536;1.478;2022-12-18T07:36:35;100236.41;;;5.06;90.25
76011;BME280;64701;43.536;1.478;2022-12-18T07:39:00;100245.25;;;5.05;90.47
76011;BME280;64701;43.536;1.478;2022-12-18T07:41:25;100245.94;;;5.07;90.74
76011;BME280;64701;43.536;1.478;2022-12-18T07:43:51;100249.00;;;5.12;90.47
76011;BME280;64701;43.536;1.478;2022-12-18T07:46:16;100248.69;;;5.15;90.41
76011;BME280;64701;43.536;1.478;2022-12-18T07:48:42;100245.66;;;5.20;90.22
76011;BME280;64701;43.536;1.478;2022-12-18T07:51:07;100252.28;;;5.14;90.71
76011;BME280;64701;43.536;1.478;2022-12-18T07:53:33;100240.66;;;5.26;90.50
76011;BME280;64701;43.536;1.478;2022-12-18T07:56:00;100248.94;;;5.31;90.20
76011;BME280;64701;43.536;1.478;2022-12-18T07:58:26;100250.22;;;5.27;89.66
76011;BME280;64701;43.536;1.478;2022-12-18T08:00:51;100248.00;;;5.42;90.08
76011;BME280;64701;43.536;1.478;2022-12-18T08:03:17;100253.06;;;5.44;89.94
76011;BME280;64701;43.536;1.478;2022-12-18T08:05:42;100266.34;;;5.52;89.35
76011;BME280;64701;43.536;1.478;2022-12-18T08:08:07;100272.13;;;5.55;89.00
76011;BME280;64701;43.536;1.478;2022-12-18T08:10:33;100270.44;;;5.73;88.57
76011;BME280;64701;43.536;1.478;2022-12-18T08:12:58;100273.06;;;5.83;87.81
76011;BME280;64701;43.536;1.478;2022-12-18T08:15:23;100266.91;;;6.11;87.35
76011;BME280;64701;43.536;1.478;2022-12-18T08:17:49;100275.03;;;6.18;86.92
76011;BME280;64701;43.536;1.478;2022-12-18T08:20:14;100271.56;;;6.45;86.34
76011;BME280;64701;43.536;1.478;2022-12-18T08:22:40;100275.41;;;6.50;85.47
76011;BME280;64701;43.536;1.478;2022-12-18T08:25:06;100259.97;;;6.65;84.42
76011;BME280;64701;43.536;1.478;2022-12-18T08:27:31;100254.84;;;6.64;83.71
76011;BME280;64701;43.536;1.478;2022-12-18T08:29:57;100265.03;;;6.94;83.30
76011;BME280;64701;43.536;1.478;2022-12-18T08:32:23;100261.41;;;7.13;82.69
76011;BME280;64701;43.536;1.478;2022-12-18T08:34:48;100264.78;;;7.23;81.62
76011;BME280;64701;43.536;1.478;2022-12-18T08:37:13;100271.66;;;7.59;81.23
76011;BME280;64701;43.536;1.478;2022-12-18T08:39:38;100262.53;;;7.71;79.72
76011;BME280;64701;43.536;1.478;2022-12-18T08:42:04;100243.81;;;7.57;79.35
76011;BME280;64701;43.536;1.478;2022-12-18T08:44:47;100241.75;;;7.68;79.56
76011;BME280;64701;43.536;1.478;2022-12-18T08:47:13;100250.41;;;7.87;79.62
76011;BME280;64701;43.536;1.478;2022-12-18T08:49:38;100241.22;;;7.91;78.95
76011;BME280;64701;43.536;1.478;2022-12-18T08:52:03;100242.41;;;8.30;78.30
76011;BME280;64701;43.536;1.478;2022-12-18T08:54:29;100236.59;;;8.69;77.92
76011;BME280;64701;43.536;1.478;2022-12-18T08:56:55;100246.22;;;9.02;77.90
76011;BME280;64701;43.536;1.478;2022-12-18T08:59:20;100245.22;;;8.95;75.39
76011;BME280;64701;43.536;1.478;2022-12-18T09:01:45;100255.97;;;9.26;76.08
76011;BME280;64701;43.536;1.478;2022-12-18T09:04:11;100256.81;;;9.10;74.35
76011;BME280;64701;43.536;1.478;2022-12-18T09:06:37;100246.53;;;9.48;75.65
76011;BME280;64701;43.536;1.478;2022-12-18T09:09:03;100248.88;;;9.59;73.81
76011;BME280;64701;43.536;1.478;2022-12-18T09:11:29;100249.28;;;9.95;72.86
76011;BME280;64701;43.536;1.478;2022-12-18T09:13:54;100252.72;;;10.03;72.60
76011;BME280;64701;43.536;1.478;2022-12-18T09:16:20;100257.25;;;10.42;72.37
76011;BME280;64701;43.536;1.478;2022-12-18T09:18:46;100254.66;;;10.64;71.19
76011;BME280;64701;43.536;1.478;2022-12-18T09:21:12;100244.91;;;10.88;70.81
76011;BME280;64701;43.536;1.478;2022-12-18T09:23:38;100250.06;;;11.04;71.23
76011;BME280;64701;43.536;1.478;2022-12-18T09:26:04;100252.16;;;11.54;70.08
76011;BME280;64701;43.536;1.478;2022-12-18T09:28:29;100254.78;;;11.17;69.59
76011;BME280;64701;43.536;1.478;2022-12-18T09:30:55;100259.94;;;11.33;70.54
76011;BME280;64701;43.536;1.478;2022-12-18T09:33:20;100262.91;;;11.75;68.76
76011;BME280;64701;43.536;1.478;2022-12-18T09:35:45;100260.75;;;12.08;70.58
76011;BME280;64701;43.536;1.478;2022-12-18T09:38:11;100258.56;;;11.97;69.14
76011;BME280;64701;43.536;1.478;2022-12-18T09:40:48;100264.22;;;11.79;68.80
76011;BME280;64701;43.536;1.478;2022-12-18T09:43:20;100265.56;;;11.75;69.08
76011;BME280;64701;43.536;1.478;2022-12-18T09:45:50;100249.84;;;11.89;67.44
76011;BME280;64701;43.536;1.478;2022-12-18T09:48:28;100254.50;;;12.16;67.09
76011;BME280;64701;43.536;1.478;2022-12-18T09:50:57;100256.63;;;12.06;67.85
76011;BME280;64701;43.536;1.478;2022-12-18T09:53:26;100245.38;;;12.04;68.93
76011;BME280;64701;43.536;1.478;2022-12-18T09:55:53;100243.53;;;11.75;68.93
76011;BME280;64701;43.536;1.478;2022-12-18T10:00:54;100242.06;;;11.87;68.33
76011;BME280;64701;43.536;1.478;2022-12-18T10:03:19;100250.59;;;11.82;68.58
76011;BME280;64701;43.536;1.478;2022-12-18T10:16:04;100259.47;;;11.90;66.92
76011;BME280;64701;43.536;1.478;2022-12-18T10:18:58;100250.44;;;11.24;68.51
76011;BME280;64701;43.536;1.478;2022-12-18T10:22:08;100258.47;;;11.91;67.39
76011;BME280;64701;43.536;1.478;2022-12-18T10:26:31;100238.44;;;12.03;65.32
76011;BME280;64701;43.536;1.478;2022-12-18T10:28:56;100252.50;;;12.18;66.86
76011;BME280;64701;43.536;1.478;2022-12-18T10:31:23;100254.28;;;12.61;64.95
76011;BME280;64701;43.536;1.478;2022-12-18T10:33:48;100258.31;;;12.57;64.07
76011;BME280;64701;43.536;1.478;2022-12-18T10:36:14;100260.41;;;12.98;64.72
76011;BME280;64701;43.536;1.478;2022-12-18T10:38:39;100254.41;;;13.11;64.27
76011;BME280;64701;43.536;1.478;2022-12-18T10:43:42;100259.91;;;13.09;63.36
76011;BME280;64701;43.536;1.478;2022-12-18T10:48:34;100260.19;;;13.35;62.86
76011;BME280;64701;43.536;1.478;2022-12-18T10:51:01;100253.72;;;13.44;61.90
76011;BME280;64701;43.536;1.478;2022-12-18T10:53:28;100255.25;;;13.32;60.99
76011;BME280;64701;43.536;1.478;2022-12-18T10:55:55;100252.31;;;13.48;61.76
76011;BME280;64701;43.536;1.478;2022-12-18T11:01:01;100250.28;;;14.54;58.91
76011;BME280;64701;43.536;1.478;2022-12-18T11:03:30;100246.50;;;14.28;58.73
76011;BME280;64701;43.536;1.478;2022-12-18T11:06:04;100249.50;;;14.53;59.15
76011;BME280;64701;43.536;1.478;2022-12-18T11:08:30;100263.81;;;14.46;57.94
76011;BME280;64701;43.536;1.478;2022-12-18T11:10:55;100249.44;;;14.40;58.77
76011;BME280;64701;43.536;1.478;2022-12-18T11:13:21;100231.22;;;14.09;58.58
76011;BME280;64701;43.536;1.478;2022-12-18T11:15:47;100245.88;;;13.92;59.14
76011;BME280;64701;43.536;1.478;2022-12-18T11:18:29;100238.44;;;14.56;60.45
76011;BME280;64701;43.536;1.478;2022-12-18T11:21:08;100244.28;;;14.99;57.12
76011;BME280;64701;43.536;1.478;2022-12-18T11:23:34;100247.88;;;14.59;57.53
76011;BME280;64701;43.536;1.478;2022-12-18T11:26:01;100233.16;;;14.76;57.40
76011;BME280;64701;43.536;1.478;2022-12-18T11:28:29;100241.25;;;14.07;59.41
76011;BME280;64701;43.536;1.478;2022-12-18T11:33:33;100206.75;;;15.01;57.46
76011;BME280;64701;43.536;1.478;2022-12-18T11:35:59;100194.22;;;15.67;55.11
76011;BME280;64701;43.536;1.478;2022-12-18T11:38:41;100179.09;;;16.63;52.40
76011;BME280;64701;43.536;1.478;2022-12-18T11:44:00;100164.88;;;17.01;51.76
76011;BME280;64701;43.536;1.478;2022-12-18T11:46:59;100157.91;;;17.43;49.10
76011;BME280;64701;43.536;1.478;2022-12-18T11:49:25;100172.22;;;17.98;48.33
76011;BME280;64701;43.536;1.478;2022-12-18T11:54:35;100160.13;;;18.85;46.46
76011;BME280;64701;43.536;1.478;2022-12-18T11:59:32;100164.25;;;20.72;43.49
76011;BME280;64701;43.536;1.478;2022-12-18T12:14:53;100167.91;;;20.38;42.24
76011;BME280;64701;43.536;1.478;2022-12-18T12:22:55;100162.84;;;19.08;44.32
76011;BME280;64701;43.536;1.478;2022-12-18T12:25:38;100163.56;;;19.15;44.66
76011;BME280;64701;43.536;1.478;2022-12-18T12:30:35;100139.41;;;19.74;43.67
76011;BME280;64701;43.536;1.478;2022-12-18T12:33:12;100168.28;;;18.79;45.83
76011;BME280;64701;43.536;1.478;2022-12-18T12:40:51;100154.38;;;19.58;44.47
76011;BME280;64701;43.536;1.478;2022-12-18T12:43:21;100159.38;;;18.48;47.33
76011;BME280;64701;43.536;1.478;2022-12-18T12:45:51;100163.56;;;18.14;48.78
76011;BME280;64701;43.536;1.478;2022-12-18T12:50:46;100147.44;;;18.32;47.21
76011;BME280;64701;43.536;1.478;2022-12-18T12:53:16;100148.38;;;19.09;46.37
76011;BME280;64701;43.536;1.478;2022-12-18T12:55:42;100154.97;;;19.60;44.35
76011;BME280;64701;43.536;1.478;2022-12-18T12:58:15;100142.94;;;17.97;47.99
76011;BME280;64701;43.536;1.478;2022-12-18T13:00:50;100136.28;;;18.77;47.10
76011;BME280;64701;43.536;1.478;2022-12-18T13:05:59;100150.75;;;18.16;48.34
76011;BME280;64701;43.536;1.478;2022-12-18T13:08:28;100145.78;;;17.65;48.37
76011;BME280;64701;43.536;1.478;2022-12-18T13:10:54;100149.75;;;16.50;51.58
76011;BME280;64701;43.536;1.478;2022-12-18T13:14:12;100150.09;;;16.22;52.97
76011;BME280;64701;43.536;1.478;2022-12-18T13:16:30;100174.03;;;15.91;53.82
76011;BME280;64701;43.536;1.478;2022-12-18T13:18:56;100167.78;;;15.06;56.04
76011;BME280;64701;43.536;1.478;2022-12-18T13:21:30;100171.84;;;15.75;54.97
76011;BME280;64701;43.536;1.478;2022-12-18T13:23:58;100158.50;;;15.68;56.26
76011;BME280;64701;43.536;1.478;2022-12-18T13:26:39;100152.66;;;15.98;54.81
76011;BME280;64701;43.536;1.478;2022-12-18T13:29:04;100158.09;;;17.23;51.23
76011;BME280;64701;43.536;1.478;2022-12-18T13:34:18;100160.94;;;18.08;50.30
76011;BME280;64701;43.536;1.478;2022-12-18T13:36:44;100164.59;;;18.13;49.21
76011;BME280;64701;43.536;1.478;2022-12-18T13:41:44;100152.91;;;18.97;47.42
76011;BME280;64701;43.536;1.478;2022-12-18T13:44:28;100154.13;;;20.23;44.88
76011;BME280;64701;43.536;1.478;2022-12-18T13:46:55;100166.13;;;19.10;46.67
76011;BME280;64701;43.536;1.478;2022-12-18T13:49:22;100157.75;;;18.77;47.75
76011;BME280;64701;43.536;1.478;2022-12-18T13:51:49;100160.69;;;18.46;48.75
76011;BME280;64701;43.536;1.478;2022-12-18T13:54:27;100155.91;;;19.42;47.29
76011;BME280;64701;43.536;1.478;2022-12-18T13:56:53;100159.84;;;19.16;47.47
76011;BME280;64701;43.536;1.478;2022-12-18T14:04:23;100149.44;;;19.32;46.96
76011;BME280;64701;43.536;1.478;2022-12-18T14:06:50;100137.41;;;18.88;48.28
76011;BME280;64701;43.536;1.478;2022-12-18T14:09:17;100137.16;;;17.63;51.43
76011;BME280;64701;43.536;1.478;2022-12-18T14:11:47;100140.06;;;17.62;51.14
76011;BME280;64701;43.536;1.478;2022-12-18T14:14:14;100133.91;;;17.11;52.72
76011;BME280;64701;43.536;1.478;2022-12-18T14:16:40;100147.09;;;16.82;53.43
76011;BME280;64701;43.536;1.478;2022-12-18T14:19:08;100152.56;;;17.43;52.79
76011;BME280;64701;43.536;1.478;2022-12-18T14:21:37;100136.84;;;18.08;51.76
76011;BME280;64701;43.536;1.478;2022-12-18T14:24:03;100144.69;;;17.48;53.21
76011;BME280;64701;43.536;1.478;2022-12-18T14:26:29;100149.94;;;17.36;52.41
76011;BME280;64701;43.536;1.478;2022-12-18T14:28:59;100148.94;;;17.55;52.57
76011;BME280;64701;43.536;1.478;2022-12-18T14:31:29;100141.59;;;16.77;54.79
76011;BME280;64701;43.536;1.478;2022-12-18T14:33:55;100146.59;;;15.64;57.96
76011;BME280;64701;43.536;1.478;2022-12-18T14:36:22;100140.06;;;14.75;60.45
76011;BME280;64701;43.536;1.478;2022-12-18T14:38:52;100129.44;;;14.20;62.68
76011;BME280;64701;43.536;1.478;2022-12-18T14:41:18;100122.34;;;13.18;66.38
76011;BME280;64701;43.536;1.478;2022-12-18T14:43:45;100132.19;;;12.96;67.77